Latest Coastal Weather Observations for Lihou Reef Lighthouse

IDQ60701

Issued at 11:51 pm EST Tuesday 24 May 2016 (issued every 10 minutes, with the page automatically refreshed every 10 minutes)

About coastal observations | Map of coastal stations | Coastal observations for QLD | Marine services | Other Formats
Station Details ID: 200880 Name: LIHOU REEF LIGHTHOUSE Lat: -17.13 Lon: 152.15 Height: 0.0 m
Data from the previous 72 hours. | See also: Recent months at Lihou Reef Lighthouse
Date/Time
EST
Temp

°C
Wind Pressure Rain
since 9am
mm
Weather Cloud Vis
km
Sea
Height
m
Swell
Dir
 
Speed
knots
Gust
knots
hPa Trend Height
m
Period
s
Dir
24/11:30pm 25.9 SE 13 16 1015.1 - - - - - - - - -
24/11:00pm 26.0 SE 13 15 1015.3 - - - - - - - - -
24/10:30pm 25.9 SE 13 15 1015.5 - - - - - - - - -
24/10:00pm 25.9 SE 13 15 1015.5 - - - - - - - - -
24/09:30pm 26.0 SE 13 16 1015.4 - - - - - - - - -
24/09:00pm 26.4 ESE 11 14 1015.5 - - - - - - - - -
24/08:30pm 25.8 ESE 10 13 1015.5 - - - - - - - - -
24/08:00pm 26.6 ESE 11 13 1015.4 - - - - - - - - -
24/07:30pm 26.5 ESE 11 13 1015.1 - - - - - - - - -
24/07:00pm 26.4 ESE 10 12 1015.0 - - - - - - - - -
24/06:30pm 26.3 ESE 10 12 1014.6 - - - - - - - - -
24/06:00pm 26.4 ESE 10 12 1014.3 - - - - - - - - -
24/05:30pm 26.3 SE 10 12 1014.1 - - - - - - - - -
24/05:00pm 26.2 ESE 11 13 1013.8 - - - - - - - - -
24/04:30pm 26.0 ESE 14 16 1013.6 - - - - - - - - -
24/04:00pm 26.4 SE 11 13 1013.3 - - - - - - - - -
24/03:30pm 26.5 SE 11 14 1013.2 - - - - - - - - -
24/03:00pm 26.4 SE 12 15 1013.2 - - - - - - - - -
24/02:30pm 26.4 SE 13 15 1013.2 - - - - - - - - -
24/02:00pm 26.5 SE 13 15 1013.1 - - - - - - - - -
24/01:30pm 26.4 SE 12 15 1013.4 - - - - - - - - -
24/01:00pm 26.5 SE 15 17 1013.0 - - - - - - - - -
24/12:30pm 26.8 SE 16 18 1013.4 - - - - - - - - -
24/12:00pm 26.7 SE 16 19 1013.9 - - - - - - - - -
24/11:30am 26.9 SE 16 19 1014.2 - - - - - - - - -
24/11:00am 26.7 SE 17 19 1014.6 - - - - - - - - -
24/10:30am 26.5 SE 18 20 1014.7 - - - - - - - - -
24/10:00am 26.6 SE 17 20 1014.8 - - - - - - - - -
24/09:30am 26.6 SE 17 20 1014.8 - - - - - - - - -
24/09:00am 26.4 ESE 17 19 1015.0 - - - - - - - - -
24/08:30am 26.3 SE 16 18 1015.4 - - - - - - - - -
24/08:00am 26.0 SE 16 20 1015.1 - - - - - - - - -
24/07:30am 26.2 SE 17 20 1015.1 - - - - - - - - -
24/07:00am 25.9 SSE 16 20 1014.8 - - - - - - - - -
24/06:30am 25.7 SSE 17 20 1014.8 - - - - - - - - -
24/06:00am 25.7 SSE 16 19 1014.8 - - - - - - - - -
24/05:30am 25.6 SSE 17 19 1014.7 - - - - - - - - -
24/05:00am 26.2 SSE 15 17 1014.5 - - - - - - - - -
24/04:30am 26.1 SSE 15 17 1014.5 - - - - - - - - -
24/04:00am 26.1 SE 14 17 1014.4 - - - - - - - - -
24/03:30am 26.2 SSE 14 17 1014.4 - - - - - - - - -
24/03:00am 26.1 SSE 15 18 1014.6 - - - - - - - - -
24/02:30am 26.2 SSE 15 18 1014.6 - - - - - - - - -
24/02:00am 26.2 SSE 15 18 1014.7 - - - - - - - - -
24/01:30am 26.0 SSE 15 18 1014.8 - - - - - - - - -
24/01:00am 26.1 SE 15 18 1014.7 - - - - - - - - -
24/12:30am 26.0 SE 15 19 1014.8 - - - - - - - - -
24/12:00am 26.0 SE 15 18 1015.0 - - - - - - - - -
 
Date/Time
EST
Temp

°C
Wind Pressure Rain
since 9am
mm
Weather Cloud Vis
km
Sea
Height
m
Swell
Dir
 
Speed
knots
Gust
knots
hPa Trend Height
m
Period
s
Dir
23/11:30pm 26.1 SSE 17 20 1014.8 - - - - - - - - -
23/11:00pm 26.0 SSE 16 19 1015.0 - - - - - - - - -
23/10:30pm 26.0 SE 17 20 1014.8 - - - - - - - - -
23/10:00pm 26.1 SSE 17 21 1015.2 - - - - - - - - -
23/09:30pm 25.6 SSE 17 21 1015.4 - - - - - - - - -
23/09:00pm 25.5 SSE 18 21 1015.4 - - - - - - - - -
23/08:30pm 25.8 SSE 18 21 1015.4 - - - - - - - - -
23/08:00pm 25.5 SSE 19 22 1015.4 - - - - - - - - -
23/07:30pm 25.2 SSE 16 19 1015.3 - - - - - - - - -
23/07:00pm 25.0 SSE 18 21 1015.1 - - - - - - - - -
23/06:30pm 25.3 SSE 18 20 1014.6 - - - - - - - - -
23/06:00pm 25.1 SSE 16 19 1014.6 - - - - - - - - -
23/05:30pm 25.6 SE 15 18 1014.2 - - - - - - - - -
23/05:00pm 26.1 ESE 15 17 1014.0 - - - - - - - - -
23/04:30pm 25.4 SE 15 17 1013.6 - - - - - - - - -
23/04:00pm 25.9 ESE 16 18 1013.3 - - - - - - - - -
23/03:30pm 25.9 SE 15 18 1013.1 - - - - - - - - -
23/03:00pm 25.7 SE 15 18 1013.1 - - - - - - - - -
23/02:30pm 25.9 ESE 17 20 1013.2 - - - - - - - - -
23/02:00pm 26.4 ESE 16 19 1013.2 - - - - - - - - -
23/01:30pm 26.2 ESE 16 19 1013.5 - - - - - - - - -
23/01:00pm 26.5 ESE 15 17 1013.9 - - - - - - - - -
23/12:30pm 26.1 ESE 15 18 1014.3 - - - - - - - - -
23/12:00pm 26.1 ESE 17 21 1014.6 - - - - - - - - -
23/11:30am 26.8 ESE 14 17 1015.0 - - - - - - - - -
23/11:00am 26.6 ESE 17 20 1015.1 - - - - - - - - -
23/10:30am 26.6 ESE 16 19 1015.5 - - - - - - - - -
23/10:00am 26.8 ESE 17 19 1015.8 - - - - - - - - -
23/09:30am 26.8 ESE 16 19 1016.0 - - - - - - - - -
23/09:00am 26.7 ESE 17 21 1015.9 - - - - - - - - -
23/08:30am 26.6 ESE 18 22 1015.4 - - - - - - - - -
23/08:00am 26.4 ESE 16 19 1015.2 - - - - - - - - -
23/07:30am 26.3 ESE 15 19 1015.1 - - - - - - - - -
23/07:00am 26.5 ESE 16 19 1014.6 - - - - - - - - -
23/06:30am 26.3 SE 16 20 1014.6 - - - - - - - - -
23/06:00am 26.2 ESE 15 19 1014.7 - - - - - - - - -
23/05:30am 26.3 ESE 16 18 1014.3 - - - - - - - - -
23/05:00am 26.2 ESE 16 19 1014.0 - - - - - - - - -
23/04:30am 26.3 E 15 18 1013.9 - - - - - - - - -
23/04:00am 26.2 E 15 18 1013.8 - - - - - - - - -
23/03:30am 26.2 SE 15 17 1014.1 - - - - - - - - -
23/03:00am 26.1 SE 15 18 1014.0 - - - - - - - - -
23/02:30am 26.2 SE 15 19 1014.2 - - - - - - - - -
23/02:00am 26.4 SE 16 19 1014.6 - - - - - - - - -
23/01:30am 26.2 SE 15 18 1014.7 - - - - - - - - -
23/01:00am 26.3 SE 16 18 1014.8 - - - - - - - - -
23/12:30am 26.2 SE 15 20 1015.1 - - - - - - - - -
23/12:00am 26.2 SSE 17 20 1015.1 - - - - - - - - -
 
Date/Time
EST
Temp

°C
Wind Pressure Rain
since 9am
mm
Weather Cloud Vis
km
Sea
Height
m
Swell
Dir
 
Speed
knots
Gust
knots
hPa Trend Height
m
Period
s
Dir
22/11:30pm 26.3 SE 16 19 1015.2 - - - - - - - - -
22/11:00pm 26.4 SSE 17 21 1015.6 - - - - - - - - -
22/10:30pm 26.3 SSE 17 19 1015.8 - - - - - - - - -
22/10:00pm 26.4 SE 18 22 1016.0 - - - - - - - - -
22/09:30pm 26.4 ESE 18 21 1016.2 - - - - - - - - -
22/09:00pm 26.5 ESE 18 22 1016.2 - - - - - - - - -
22/08:30pm 26.5 ESE 18 21 1016.4 - - - - - - - - -
22/08:00pm 26.5 ESE 18 21 1016.3 - - - - - - - - -
22/07:30pm 26.7 ESE 18 22 1016.1 - - - - - - - - -
22/07:00pm 26.5 ESE 18 20 1015.8 - - - - - - - - -
22/06:30pm 26.6 ESE 18 21 1015.6 - - - - - - - - -
22/06:00pm 26.5 ESE 20 23 1015.0 - - - - - - - - -
22/05:30pm 26.8 E 20 23 1014.7 - - - - - - - - -
22/05:00pm 26.8 E 17 19 1014.7 - - - - - - - - -
22/04:30pm 27.1 E 15 18 1014.7 - - - - - - - - -
22/04:00pm 27.0 SE 14 17 1014.7 - - - - - - - - -
22/03:30pm 27.0 SE 14 17 1014.6 - - - - - - - - -
22/03:00pm 27.2 SE 14 18 1014.8 - - - - - - - - -
22/02:30pm 27.0 SE 16 18 1014.8 - - - - - - - - -
22/02:00pm 27.0 SSE 17 19 1015.0 - - - - - - - - -
22/01:30pm 27.1 SE 17 21 1015.1 - - - - - - - - -
22/01:00pm 27.0 SE 17 20 1015.3 - - - - - - - - -
22/12:30pm 27.0 SE 17 20 1015.8 - - - - - - - - -
22/12:00pm 26.9 SE 17 20 1016.1 - - - - - - - - -
22/11:30am 27.2 SE 16 18 1016.6 - - - - - - - - -
22/11:00am 27.0 SE 16 19 1017.0 - - - - - - - - -
22/10:30am 27.2 SE 17 19 1017.3 - - - - - - - - -
22/10:00am 27.3 SE 17 19 1017.6 - - - - - - - - -
22/09:30am 27.3 SE 17 21 1017.6 - - - - - - - - -
22/09:00am 27.1 SE 17 19 1017.3 - - - - - - - - -
22/08:30am 27.2 SE 17 20 1017.1 - - - - - - - - -
22/08:00am 27.1 SE 18 20 1016.8 - - - - - - - - -
22/07:30am 26.8 SE 17 20 1016.6 - - - - - - - - -
22/07:00am 26.9 SE 19 22 1016.3 - - - - - - - - -
22/06:30am 26.6 SE 18 21 1015.9 - - - - - - - - -
22/06:00am 26.6 SE 19 22 1015.6 - - - - - - - - -
22/05:30am 26.6 SE 20 24 1015.2 - - - - - - - - -
22/05:00am 26.5 SE 20 24 1014.6 - - - - - - - - -
22/04:30am 26.6 SE 19 22 1014.7 - - - - - - - - -
22/04:00am 26.5 SE 19 23 1014.7 - - - - - - - - -
22/03:30am 26.7 SE 20 23 1014.7 - - - - - - - - -
22/03:00am 26.6 SE 20 22 1014.7 - - - - - - - - -
22/02:30am 26.5 SE 21 23 1014.8 - - - - - - - - -
22/02:00am 26.6 SE 21 24 1014.8 - - - - - - - - -
22/01:30am 26.7 SE 22 26 1015.1 - - - - - - - - -
22/01:00am 26.3 SE 21 25 1015.2 - - - - - - - - -
22/12:30am 26.5 SE 20 25 1015.5 - - - - - - - - -
22/12:00am 26.7 SE 19 23 1015.9 - - - - - - - - -

Other Formats:

Comma delimited format used in spreadsheet applications
http://www.bom.gov.au/fwo/IDQ60701/IDQ60701.94293.axf

JavaScript Object Notation format (JSON) in row-major order
http://www.bom.gov.au/fwo/IDQ60701/IDQ60701.94293.json